Time;durP1;ratioP1;P1;durP2;ratioP2;P2;SDS_P1;SDS_P2;PMS_P1;PMS_P2;Temp;Humidity;BMP_temperature;BMP_pressure;BME280_temperature;BME280_humidity;BME280_pressure;Samples;Min_cycle;Max_cycle;Signal;HPM_P1;HPM_P2
2023/04/03 00:01:57;;;;;;;9.13;8.73;;;;;;;;;;5111075;28;20022;-60
2023/04/03 00:04:22;;;;;;;9.15;8.75;;;;;;;;;;5111018;28;20030;-60
2023/04/03 00:06:47;;;;;;;9.00;8.60;;;;;;;;;;5106845;28;20028;-60
2023/04/03 00:09:13;;;;;;;9.30;8.90;;;;;;;;;;5107697;28;20027;-61
2023/04/03 00:11:39;;;;;;;9.52;9.10;;;;;;;;;;5112529;28;20019;-61
2023/04/03 00:14:04;;;;;;;9.20;8.80;;;;;;;;;;5098918;28;20378;-60
2023/04/03 00:16:30;;;;;;;9.07;8.68;;;;;;;;;;5112031;28;20018;-60
2023/04/03 00:18:55;;;;;;;9.35;8.95;;;;;;;;;;5117098;28;20050;-60
2023/04/03 00:21:21;;;;;;;9.18;8.77;;;;;;;;;;5111822;28;20024;-61
2023/04/03 00:23:46;;;;;;;9.70;9.20;;;;;;;;;;5114757;28;20019;-61
2023/04/03 00:26:11;;;;;;;9.18;8.77;;;;;;;;;;5115735;28;20054;-59
2023/04/03 00:28:37;;;;;;;9.80;9.30;;;;;;;;;;5112203;28;20445;-61
2023/04/03 00:31:03;;;;;;;8.98;8.57;;;;;;;;;;5114850;28;20047;-61
2023/04/03 00:33:28;;;;;;;9.23;8.82;;;;;;;;;;5115256;28;20019;-60
2023/04/03 00:35:53;;;;;;;9.35;8.95;;;;;;;;;;5115289;27;20584;-60
2023/04/03 00:38:19;;;;;;;9.50;9.10;;;;;;;;;;5114362;28;20024;-59
2023/04/03 00:40:45;;;;;;;9.18;8.77;;;;;;;;;;5115439;28;20360;-61
2023/04/03 00:43:15;;;;;;;8.85;8.45;;;;;;;;;;5115223;28;20020;-61
2023/04/03 00:45:42;;;;;;;9.45;9.05;;;;;;;;;;5107709;28;20023;-60
2023/04/03 00:48:09;;;;;;;9.38;8.95;;;;;;;;;;5112752;28;20028;-60
2023/04/03 00:50:37;;;;;;;9.90;9.40;;;;;;;;;;5114763;28;20027;-60
2023/04/03 00:53:03;;;;;;;9.18;8.77;;;;;;;;;;5110714;27;20149;-60
2023/04/03 00:55:29;;;;;;;9.18;8.77;;;;;;;;;;5114807;28;20104;-61
2023/04/03 00:57:54;;;;;;;9.07;8.68;;;;;;;;;;5114671;28;20489;-60
2023/04/03 01:00:22;;;;;;;9.73;9.23;;;;;;;;;;5114508;28;20044;-59
2023/04/03 01:02:48;;;;;;;10.18;9.68;;;;;;;;;;5108557;28;20028;-61
2023/04/03 01:05:15;;;;;;;8.93;8.52;;;;;;;;;;5095818;28;20016;-61
2023/04/03 01:07:40;;;;;;;9.20;8.80;;;;;;;;;;5108329;27;20466;-60
2023/04/03 01:10:08;;;;;;;9.13;8.73;;;;;;;;;;5116419;27;20020;-61
2023/04/03 01:12:38;;;;;;;9.60;9.10;;;;;;;;;;5122918;27;20030;-60
2023/04/03 01:15:03;;;;;;;9.20;8.80;;;;;;;;;;5117035;27;20434;-60
2023/04/03 01:17:31;;;;;;;8.90;8.50;;;;;;;;;;5109535;28;20016;-61
2023/04/03 01:20:03;;;;;;;9.45;9.05;;;;;;;;;;5109486;28;20053;-60
2023/04/03 01:22:33;;;;;;;9.30;8.90;;;;;;;;;;5114117;28;20499;-60
2023/04/03 01:24:58;;;;;;;9.88;9.38;;;;;;;;;;5115291;27;20023;-61
2023/04/03 01:27:23;;;;;;;9.30;8.90;;;;;;;;;;5113816;28;20023;-61
2023/04/03 01:29:49;;;;;;;9.30;8.90;;;;;;;;;;5114128;28;20054;-60
2023/04/03 01:32:14;;;;;;;9.27;8.88;;;;;;;;;;5113789;28;20115;-60
2023/04/03 01:34:40;;;;;;;10.18;9.68;;;;;;;;;;5111780;28;20117;-61
2023/04/03 01:37:05;;;;;;;9.85;9.35;;;;;;;;;;5113116;28;20035;-60
2023/04/03 01:39:30;;;;;;;8.90;8.50;;;;;;;;;;5112817;28;20791;-61
2023/04/03 01:41:55;;;;;;;9.50;9.10;;;;;;;;;;5111283;27;20015;-61
2023/04/03 01:44:21;;;;;;;9.10;8.70;;;;;;;;;;5114199;28;20027;-60
2023/04/03 01:46:46;;;;;;;9.38;8.98;;;;;;;;;;5113897;28;20054;-61
2023/04/03 01:49:12;;;;;;;9.48;9.07;;;;;;;;;;5113446;28;20439;-61
2023/04/03 01:51:37;;;;;;;10.93;10.32;;;;;;;;;;5108094;28;20024;-62
2023/04/03 01:54:02;;;;;;;9.50;9.10;;;;;;;;;;5111513;28;20023;-61
2023/04/03 01:56:27;;;;;;;8.80;8.40;;;;;;;;;;5113818;28;20015;-61
2023/04/03 01:58:53;;;;;;;9.68;9.18;;;;;;;;;;5113964;27;20068;-61
2023/04/03 02:01:18;;;;;;;10.02;9.52;;;;;;;;;;5113153;28;20035;-61
2023/04/03 02:03:45;;;;;;;9.75;9.25;;;;;;;;;;5113147;28;20360;-60
2023/04/03 02:06:10;;;;;;;9.00;8.60;;;;;;;;;;5113336;28;20033;-61
2023/04/03 02:08:36;;;;;;;10.23;9.73;;;;;;;;;;5111621;28;20094;-61
2023/04/03 02:11:01;;;;;;;9.43;9.02;;;;;;;;;;5112470;28;20031;-61
2023/04/03 02:13:26;;;;;;;9.55;9.15;;;;;;;;;;5112226;28;20035;-60
2023/04/03 02:15:51;;;;;;;9.52;9.10;;;;;;;;;;5113618;27;20015;-61
2023/04/03 02:18:17;;;;;;;9.10;8.70;;;;;;;;;;5112990;28;20015;-61
2023/04/03 02:20:43;;;;;;;9.52;9.10;;;;;;;;;;5113106;28;20016;-61
2023/04/03 02:23:09;;;;;;;10.02;9.52;;;;;;;;;;5112189;28;20023;-61
2023/04/03 02:25:34;;;;;;;9.63;9.18;;;;;;;;;;5113173;28;20018;-60
2023/04/03 02:27:59;;;;;;;9.77;9.27;;;;;;;;;;5107452;28;20015;-61
2023/04/03 02:30:26;;;;;;;9.32;8.93;;;;;;;;;;5112796;28;20681;-61
2023/04/03 02:32:51;;;;;;;9.38;8.98;;;;;;;;;;5113509;27;20026;-61
2023/04/03 02:35:16;;;;;;;9.05;8.65;;;;;;;;;;5094586;28;20015;-60
2023/04/03 02:37:42;;;;;;;9.77;9.27;;;;;;;;;;5107837;28;20008;-60
2023/04/03 02:40:07;;;;;;;9.57;9.10;;;;;;;;;;5112552;28;20028;-60
2023/04/03 02:42:32;;;;;;;9.50;9.10;;;;;;;;;;5116677;27;20057;-61
2023/04/03 02:45:00;;;;;;;9.20;8.80;;;;;;;;;;5109486;28;20478;-60
2023/04/03 02:47:25;;;;;;;9.02;8.63;;;;;;;;;;5099177;28;20020;-60
2023/04/03 02:49:52;;;;;;;9.15;8.75;;;;;;;;;;5112971;27;20050;-60
2023/04/03 02:52:18;;;;;;;9.70;9.20;;;;;;;;;;5112209;28;20068;-60
2023/04/03 02:54:43;;;;;;;9.90;9.40;;;;;;;;;;5112387;28;20019;-60
2023/04/03 02:57:08;;;;;;;9.25;8.85;;;;;;;;;;5111654;28;20027;-60
2023/04/03 02:59:34;;;;;;;9.48;9.07;;;;;;;;;;5088158;28;20169;-62
2023/04/03 03:01:59;;;;;;;9.18;8.77;;;;;;;;;;5109325;28;20027;-60
2023/04/03 03:04:25;;;;;;;9.45;9.05;;;;;;;;;;5103183;28;20011;-60
2023/04/03 03:06:50;;;;;;;9.80;9.30;;;;;;;;;;5095849;28;20115;-60
2023/04/03 03:09:16;;;;;;;9.63;9.13;;;;;;;;;;5106236;28;20364;-60
2023/04/03 03:11:41;;;;;;;9.18;8.77;;;;;;;;;;5112407;28;20042;-60
2023/04/03 03:14:06;;;;;;;9.40;9.00;;;;;;;;;;5111360;28;20024;-60
2023/04/03 03:16:31;;;;;;;9.25;8.85;;;;;;;;;;5110455;28;20103;-60
2023/04/03 03:18:57;;;;;;;9.95;9.45;;;;;;;;;;5092927;28;20119;-60
2023/04/03 03:21:22;;;;;;;9.75;9.25;;;;;;;;;;5110633;28;20019;-60
2023/04/03 03:23:48;;;;;;;9.77;9.27;;;;;;;;;;5112544;28;20020;-60
2023/04/03 03:26:13;;;;;;;9.30;8.90;;;;;;;;;;5098817;28;20016;-61
2023/04/03 03:28:38;;;;;;;9.80;9.30;;;;;;;;;;5111760;28;20016;-60
2023/04/03 03:31:05;;;;;;;9.77;9.27;;;;;;;;;;5109150;28;20028;-60
2023/04/03 03:33:30;;;;;;;10.35;9.85;;;;;;;;;;5108775;28;20020;-60
2023/04/03 03:35:56;;;;;;;9.98;9.48;;;;;;;;;;5096829;28;20070;-60
2023/04/03 03:38:22;;;;;;;9.30;8.90;;;;;;;;;;5112078;28;20031;-60
2023/04/03 03:40:48;;;;;;;9.55;9.07;;;;;;;;;;5112633;28;20387;-62
2023/04/03 03:43:14;;;;;;;9.65;9.15;;;;;;;;;;5124851;28;20016;-60
2023/04/03 03:45:39;;;;;;;9.93;9.43;;;;;;;;;;5111400;28;20016;-61
2023/04/03 03:48:05;;;;;;;9.10;8.70;;;;;;;;;;5102028;28;20069;-60
2023/04/03 03:50:30;;;;;;;9.70;9.20;;;;;;;;;;5105515;28;20450;-60
2023/04/03 03:52:56;;;;;;;9.30;8.90;;;;;;;;;;5109370;28;20028;-60
2023/04/03 03:55:21;;;;;;;10.15;9.65;;;;;;;;;;5111474;28;20020;-60
2023/04/03 03:57:47;;;;;;;10.27;9.77;;;;;;;;;;5115235;27;20049;-61
2023/04/03 04:00:12;;;;;;;9.45;9.00;;;;;;;;;;5115625;28;20131;-61
2023/04/03 04:02:37;;;;;;;9.60;9.10;;;;;;;;;;5115716;28;20016;-61
2023/04/03 04:05:03;;;;;;;10.02;9.52;;;;;;;;;;5114115;28;20099;-60
2023/04/03 04:07:29;;;;;;;10.00;9.50;;;;;;;;;;5100959;27;20024;-60
2023/04/03 04:09:54;;;;;;;9.73;9.23;;;;;;;;;;5113791;27;20649;-59
2023/04/03 04:12:20;;;;;;;10.05;9.55;;;;;;;;;;5114151;27;20023;-62
2023/04/03 04:14:46;;;;;;;9.93;9.43;;;;;;;;;;5121861;27;20031;-60
2023/04/03 04:17:12;;;;;;;9.98;9.48;;;;;;;;;;5116348;27;20447;-60
2023/04/03 04:19:37;;;;;;;10.90;10.30;;;;;;;;;;5110722;28;20016;-59
2023/04/03 04:22:03;;;;;;;10.20;9.70;;;;;;;;;;5118324;27;20064;-61
2023/04/03 04:24:28;;;;;;;9.77;9.30;;;;;;;;;;5115871;27;20024;-60
2023/04/03 04:26:53;;;;;;;9.98;9.48;;;;;;;;;;5119024;27;20015;-62
2023/04/03 04:29:19;;;;;;;9.20;8.80;;;;;;;;;;5124522;27;20174;-60
2023/04/03 04:31:45;;;;;;;9.80;9.30;;;;;;;;;;5117977;27;20023;-60
2023/04/03 04:34:12;;;;;;;10.38;9.82;;;;;;;;;;5103108;27;20440;-59
2023/04/03 04:36:37;;;;;;;10.60;10.00;;;;;;;;;;5110904;28;20084;-59
2023/04/03 04:39:03;;;;;;;9.88;9.38;;;;;;;;;;5113895;27;20099;-60
2023/04/03 04:41:28;;;;;;;9.77;9.27;;;;;;;;;;5106774;28;20419;-60
2023/04/03 04:43:54;;;;;;;9.15;8.75;;;;;;;;;;5113608;28;20534;-60
2023/04/03 04:46:20;;;;;;;10.55;10.00;;;;;;;;;;5104781;28;20035;-59
2023/04/03 04:48:45;;;;;;;10.00;9.50;;;;;;;;;;5106508;28;20024;-59
2023/04/03 04:51:11;;;;;;;9.40;9.00;;;;;;;;;;5104405;28;20035;-59
2023/04/03 04:53:36;;;;;;;9.45;9.00;;;;;;;;;;5113000;28;20042;-59
2023/04/03 04:56:02;;;;;;;11.25;10.65;;;;;;;;;;5107886;27;20486;-60
2023/04/03 04:58:27;;;;;;;9.93;9.43;;;;;;;;;;5095414;28;20059;-59
2023/04/03 05:01:02;;;;;;;9.57;9.10;;;;;;;;;;5113344;28;20118;-59
2023/04/03 05:03:28;;;;;;;9.40;9.00;;;;;;;;;;5112968;28;20022;-60
2023/04/03 05:05:53;;;;;;;9.80;9.30;;;;;;;;;;5113866;27;20471;-60
2023/04/03 05:08:18;;;;;;;9.77;9.27;;;;;;;;;;5113412;28;20497;-61
2023/04/03 05:10:47;;;;;;;10.23;9.73;;;;;;;;;;5111553;28;20115;-62
2023/04/03 05:13:12;;;;;;;10.02;9.52;;;;;;;;;;5099974;27;20020;-61
2023/04/03 05:15:38;;;;;;;9.45;9.05;;;;;;;;;;5102939;27;20489;-60
2023/04/03 05:18:04;;;;;;;10.07;9.57;;;;;;;;;;5113588;28;20387;-60
2023/04/03 05:20:30;;;;;;;9.40;9.00;;;;;;;;;;5114380;28;20099;-61
2023/04/03 05:22:55;;;;;;;9.50;9.02;;;;;;;;;;5114079;27;20091;-61
2023/04/03 05:25:20;;;;;;;9.88;9.38;;;;;;;;;;5113845;28;20535;-61
2023/04/03 05:27:45;;;;;;;10.43;9.88;;;;;;;;;;5113442;28;20020;-60
2023/04/03 05:30:11;;;;;;;9.70;9.20;;;;;;;;;;5107674;28;20039;-61
2023/04/03 05:32:36;;;;;;;9.93;9.43;;;;;;;;;;5093577;28;20019;-60
2023/04/03 05:35:02;;;;;;;10.10;9.60;;;;;;;;;;5095106;28;20027;-60
2023/04/03 05:37:27;;;;;;;9.90;9.40;;;;;;;;;;5116526;28;20016;-60
2023/04/03 05:39:52;;;;;;;10.25;9.75;;;;;;;;;;5102733;27;20382;-61
2023/04/03 05:42:18;;;;;;;9.05;8.65;;;;;;;;;;5113645;28;20065;-60
2023/04/03 05:44:44;;;;;;;9.52;9.10;;;;;;;;;;5115434;27;20023;-61
2023/04/03 05:47:09;;;;;;;10.40;9.88;;;;;;;;;;5118383;27;20028;-61
2023/04/03 05:49:35;;;;;;;10.27;9.77;;;;;;;;;;5111419;27;20389;-61
2023/04/03 05:52:00;;;;;;;10.55;10.05;;;;;;;;;;5110503;28;20036;-61
2023/04/03 05:54:27;;;;;;;9.70;9.20;;;;;;;;;;5116478;27;20381;-61
2023/04/03 05:56:54;;;;;;;10.23;9.73;;;;;;;;;;5114845;27;20032;-60
2023/04/03 05:59:19;;;;;;;9.55;9.10;;;;;;;;;;5116479;27;20019;-63
2023/04/03 06:01:45;;;;;;;12.30;11.60;;;;;;;;;;5105256;27;20397;-63
2023/04/03 06:04:12;;;;;;;11.63;10.93;;;;;;;;;;5112258;27;20034;-63
2023/04/03 06:06:45;;;;;;;10.85;10.25;;;;;;;;;;5100409;27;20012;-63
2023/04/03 06:09:10;;;;;;;11.38;10.77;;;;;;;;;;5105498;27;20107;-63
2023/04/03 06:11:35;;;;;;;10.75;10.15;;;;;;;;;;5106750;27;20111;-63
2023/04/03 06:14:01;;;;;;;11.07;10.48;;;;;;;;;;5088625;27;20036;-63
2023/04/03 06:16:26;;;;;;;10.80;10.20;;;;;;;;;;5106623;27;20156;-66
2023/04/03 06:18:51;;;;;;;10.82;10.23;;;;;;;;;;5111942;27;20089;-65
2023/04/03 06:21:17;;;;;;;11.10;10.50;;;;;;;;;;5112945;27;20015;-65
2023/04/03 06:23:42;;;;;;;13.13;12.30;;;;;;;;;;5099825;27;20050;-65
2023/04/03 06:26:07;;;;;;;12.43;11.68;;;;;;;;;;5108790;27;20431;-63
2023/04/03 06:28:33;;;;;;;11.15;10.55;;;;;;;;;;5100709;27;20028;-64
2023/04/03 06:30:58;;;;;;;10.18;9.68;;;;;;;;;;5103855;27;20394;-63
2023/04/03 06:33:24;;;;;;;10.57;10.00;;;;;;;;;;5119519;27;20019;-64
2023/04/03 06:35:49;;;;;;;11.25;10.65;;;;;;;;;;5112891;27;20032;-65
2023/04/03 06:38:15;;;;;;;11.38;10.75;;;;;;;;;;5110301;27;20482;-63
2023/04/03 06:40:40;;;;;;;10.80;10.20;;;;;;;;;;5103796;27;20043;-65
2023/04/03 06:43:05;;;;;;;10.63;10.02;;;;;;;;;;5102343;27;20069;-64
2023/04/03 06:45:31;;;;;;;10.70;10.10;;;;;;;;;;5113246;27;20023;-63
2023/04/03 06:47:56;;;;;;;10.75;10.15;;;;;;;;;;5103698;28;20036;-65
2023/04/03 06:50:21;;;;;;;11.77;11.07;;;;;;;;;;5107894;27;20507;-66
2023/04/03 06:52:47;;;;;;;11.25;10.65;;;;;;;;;;5101848;27;20024;-66
2023/04/03 06:55:12;;;;;;;11.07;10.48;;;;;;;;;;5098238;27;20403;-67
2023/04/03 06:57:37;;;;;;;11.48;10.85;;;;;;;;;;5100623;28;20380;-66
2023/04/03 07:00:04;;;;;;;10.43;9.93;;;;;;;;;;5115611;27;20518;-62
2023/04/03 07:02:29;;;;;;;10.82;10.23;;;;;;;;;;5097083;28;20019;-65
2023/04/03 07:04:56;;;;;;;11.07;10.48;;;;;;;;;;5089974;27;20092;-66
2023/04/03 07:07:21;;;;;;;9.93;9.43;;;;;;;;;;5110927;27;20031;-65
2023/04/03 07:09:47;;;;;;;10.77;10.18;;;;;;;;;;5118761;27;20053;-65
2023/04/03 07:12:13;;;;;;;10.57;9.98;;;;;;;;;;5109976;27;20448;-66
2023/04/03 07:14:39;;;;;;;10.38;9.88;;;;;;;;;;5106839;28;20024;-65
2023/04/03 07:17:04;;;;;;;11.73;11.02;;;;;;;;;;5097667;28;20062;-65
2023/04/03 07:19:30;;;;;;;12.52;11.82;;;;;;;;;;5101388;28;20031;-66
2023/04/03 07:21:55;;;;;;;10.40;9.90;;;;;;;;;;5107231;28;20389;-65
2023/04/03 07:24:21;;;;;;;10.35;9.85;;;;;;;;;;5106941;28;20310;-64
2023/04/03 07:26:49;;;;;;;10.98;10.38;;;;;;;;;;5100606;28;20038;-64
2023/04/03 07:29:14;;;;;;;11.15;10.55;;;;;;;;;;5107688;28;20032;-63
2023/04/03 07:31:41;;;;;;;11.32;10.73;;;;;;;;;;5090559;28;20817;-64
2023/04/03 07:34:06;;;;;;;15.07;14.07;;;;;;;;;;5112343;27;20095;-64
2023/04/03 07:36:33;;;;;;;10.35;9.85;;;;;;;;;;5125235;27;20360;-67
2023/04/03 07:38:58;;;;;;;10.23;9.73;;;;;;;;;;5113758;27;20036;-63
2023/04/03 07:41:24;;;;;;;10.63;10.05;;;;;;;;;;5110090;27;20375;-65
2023/04/03 07:43:51;;;;;;;10.73;10.18;;;;;;;;;;5116209;27;20031;-64
2023/04/03 07:46:17;;;;;;;10.45;9.95;;;;;;;;;;5117860;27;20105;-64
2023/04/03 07:48:42;;;;;;;11.48;10.88;;;;;;;;;;5117194;27;20128;-65
2023/04/03 07:51:08;;;;;;;10.95;10.35;;;;;;;;;;5112925;27;20098;-64
2023/04/03 07:53:34;;;;;;;11.13;10.52;;;;;;;;;;5109047;27;20463;-66
2023/04/03 07:55:59;;;;;;;10.88;10.27;;;;;;;;;;5113580;27;20034;-67
2023/04/03 07:58:25;;;;;;;11.57;10.93;;;;;;;;;;5120411;27;20039;-65
2023/04/03 08:00:51;;;;;;;11.05;10.45;;;;;;;;;;5113978;27;20510;-66
2023/04/03 08:03:17;;;;;;;11.48;10.88;;;;;;;;;;5115280;27;20030;-65
2023/04/03 08:05:43;;;;;;;11.70;11.05;;;;;;;;;;5112336;27;20502;-65
2023/04/03 08:08:10;;;;;;;11.95;11.25;;;;;;;;;;5115616;27;20028;-65
2023/04/03 08:10:35;;;;;;;12.45;11.75;;;;;;;;;;5121913;27;20160;-65
2023/04/03 08:13:01;;;;;;;10.77;10.20;;;;;;;;;;5114940;27;20106;-63
2023/04/03 08:15:26;;;;;;;11.52;10.93;;;;;;;;;;5113136;27;20633;-65
2023/04/03 08:17:52;;;;;;;10.77;10.18;;;;;;;;;;5109528;27;21521;-65
2023/04/03 08:20:17;;;;;;;11.75;11.07;;;;;;;;;;5115075;27;20038;-64
2023/04/03 08:22:43;;;;;;;11.77;11.07;;;;;;;;;;5100275;27;20046;-65
2023/04/03 08:25:08;;;;;;;11.23;10.63;;;;;;;;;;5107437;27;20833;-67
2023/04/03 08:27:34;;;;;;;11.23;10.63;;;;;;;;;;5119844;27;20028;-65
2023/04/03 08:29:59;;;;;;;10.82;10.23;;;;;;;;;;5109783;27;20478;-65
2023/04/03 08:32:25;;;;;;;11.27;10.68;;;;;;;;;;5116330;27;20420;-66
2023/04/03 08:34:50;;;;;;;11.23;10.63;;;;;;;;;;5112260;27;20455;-66
2023/04/03 08:37:16;;;;;;;9.90;9.40;;;;;;;;;;5099616;27;20034;-65
2023/04/03 08:39:42;;;;;;;12.10;11.40;;;;;;;;;;5115949;27;20110;-65
2023/04/03 08:42:27;;;;;;;11.18;10.57;;;;;;;;;;5104938;27;20059;-64
2023/04/03 08:45:00;;;;;;;10.60;10.05;;;;;;;;;;5107431;27;20030;-65
2023/04/03 08:47:25;;;;;;;10.77;10.18;;;;;;;;;;5121209;27;20385;-64
2023/04/03 08:49:58;;;;;;;10.45;9.95;;;;;;;;;;5112887;27;20118;-65
2023/04/03 08:52:27;;;;;;;10.60;10.05;;;;;;;;;;5116150;27;20064;-64
2023/04/03 08:54:53;;;;;;;10.73;10.15;;;;;;;;;;5121404;27;20107;-64
2023/04/03 08:57:23;;;;;;;10.98;10.38;;;;;;;;;;5110609;27;20506;-65
2023/04/03 08:59:48;;;;;;;11.18;10.57;;;;;;;;;;5107376;27;20052;-64
2023/04/03 09:02:26;;;;;;;10.13;9.63;;;;;;;;;;5116609;27;20021;-65
2023/04/03 09:04:51;;;;;;;11.20;10.60;;;;;;;;;;5110309;27;20023;-65
2023/04/03 09:07:22;;;;;;;11.13;10.52;;;;;;;;;;5112975;27;20027;-65
2023/04/03 09:09:49;;;;;;;10.75;10.15;;;;;;;;;;5118852;27;20092;-65
2023/04/03 09:12:18;;;;;;;10.85;10.25;;;;;;;;;;5112088;27;20047;-65
2023/04/03 09:14:43;;;;;;;10.38;9.88;;;;;;;;;;5119579;27;20035;-65
2023/04/03 09:17:28;;;;;;;12.45;11.75;;;;;;;;;;5107614;27;20049;-65
2023/04/03 09:20:12;;;;;;;10.75;10.15;;;;;;;;;;5098199;27;20024;-67
2023/04/03 09:22:39;;;;;;;10.07;9.57;;;;;;;;;;5113789;27;20023;-65
2023/04/03 09:25:10;;;;;;;11.02;10.43;;;;;;;;;;5119362;27;20035;-65
2023/04/03 09:27:35;;;;;;;11.27;10.68;;;;;;;;;;5109006;28;20012;-65
2023/04/03 09:30:01;;;;;;;9.30;8.90;;;;;;;;;;5097054;27;20015;-66
2023/04/03 09:32:33;;;;;;;10.57;10.07;;;;;;;;;;5110636;27;20026;-66
2023/04/03 09:35:01;;;;;;;10.50;10.00;;;;;;;;;;5104494;28;20023;-66
2023/04/03 09:37:43;;;;;;;10.93;10.32;;;;;;;;;;5110145;27;20023;-66
2023/04/03 09:40:29;;;;;;;11.35;10.75;;;;;;;;;;5115667;27;20027;-65
2023/04/03 09:43:17;;;;;;;9.90;9.40;;;;;;;;;;5108667;28;20054;-65
2023/04/03 09:45:44;;;;;;;11.48;10.88;;;;;;;;;;5094179;27;20036;-62
2023/04/03 09:48:16;;;;;;;11.27;10.68;;;;;;;;;;5110802;27;20023;-62
2023/04/03 09:50:51;;;;;;;10.38;9.88;;;;;;;;;;5097313;27;20023;-62
2023/04/03 09:53:33;;;;;;;10.45;9.95;;;;;;;;;;5102035;28;20471;-62
2023/04/03 09:55:59;;;;;;;10.25;9.75;;;;;;;;;;5106385;27;20031;-61
2023/04/03 09:58:29;;;;;;;10.25;9.75;;;;;;;;;;5111372;27;20661;-62
2023/04/03 10:00:58;;;;;;;9.88;9.38;;;;;;;;;;5102140;27;20040;-63
2023/04/03 10:03:26;;;;;;;10.00;9.50;;;;;;;;;;5113295;28;20125;-61
2023/04/03 10:05:54;;;;;;;10.20;9.70;;;;;;;;;;5113193;28;20422;-62
2023/04/03 10:08:23;;;;;;;11.50;10.90;;;;;;;;;;5109740;28;20043;-62
2023/04/03 10:11:04;;;;;;;11.20;10.60;;;;;;;;;;5108043;27;20082;-64
2023/04/03 10:13:30;;;;;;;11.48;10.88;;;;;;;;;;5111627;27;20019;-63
2023/04/03 10:16:01;;;;;;;10.20;9.70;;;;;;;;;;5113816;27;20019;-63
2023/04/03 10:18:29;;;;;;;11.20;10.60;;;;;;;;;;5117677;27;20077;-63
2023/04/03 10:20:57;;;;;;;12.18;11.48;;;;;;;;;;5085896;28;20332;-64
2023/04/03 10:23:22;;;;;;;12.48;11.77;;;;;;;;;;5059420;27;20023;-65
2023/04/03 10:26:14;;;;;;;11.98;11.30;;;;;;;;;;5088575;28;20019;-65
2023/04/03 10:28:52;;;;;;;11.75;11.13;;;;;;;;;;5079289;27;20122;-64
2023/04/03 10:31:34;;;;;;;12.13;11.40;;;;;;;;;;5107268;27;20042;-64
2023/04/03 10:34:15;;;;;;;11.65;11.05;;;;;;;;;;5116289;27;20094;-64
2023/04/03 10:36:57;;;;;;;12.32;11.63;;;;;;;;;;5102145;27;20054;-65
2023/04/03 10:39:25;;;;;;;11.18;10.57;;;;;;;;;;5105954;27;20027;-64
2023/04/03 10:42:02;;;;;;;11.75;11.15;;;;;;;;;;5103038;27;20056;-63
2023/04/03 10:44:27;;;;;;;10.57;10.07;;;;;;;;;;5109634;27;20027;-63
2023/04/03 10:46:55;;;;;;;11.85;11.25;;;;;;;;;;5108543;27;20042;-64
2023/04/03 10:49:21;;;;;;;10.60;10.10;;;;;;;;;;5112438;27;20020;-63
2023/04/03 10:51:57;;;;;;;11.02;10.43;;;;;;;;;;5094241;28;20060;-64
2023/04/03 10:54:22;;;;;;;10.68;10.18;;;;;;;;;;5109933;27;20027;-66
2023/04/03 10:56:51;;;;;;;11.38;10.77;;;;;;;;;;5102664;27;20020;-64
2023/04/03 10:59:36;;;;;;;10.60;10.10;;;;;;;;;;5106759;27;20031;-63
2023/04/03 11:02:06;;;;;;;10.52;10.02;;;;;;;;;;5105066;27;20128;-64
2023/04/03 11:04:34;;;;;;;11.05;10.45;;;;;;;;;;5122468;27;20022;-63
2023/04/03 11:07:23;;;;;;;11.82;11.18;;;;;;;;;;5116913;27;20021;-68
2023/04/03 11:09:50;;;;;;;10.95;10.35;;;;;;;;;;5102225;27;20034;-66
2023/04/03 11:12:29;;;;;;;10.88;10.30;;;;;;;;;;5101630;27;20085;-65
2023/04/03 11:14:56;;;;;;;10.98;10.40;;;;;;;;;;5102492;27;20046;-66
2023/04/03 11:17:26;;;;;;;11.05;10.45;;;;;;;;;;5118438;27;20031;-66
2023/04/03 11:19:54;;;;;;;11.38;10.77;;;;;;;;;;5117809;28;20031;-63
2023/04/03 11:22:26;;;;;;;11.23;10.63;;;;;;;;;;5116570;28;20061;-65
2023/04/03 11:24:56;;;;;;;10.45;9.95;;;;;;;;;;5113877;28;20038;-65
2023/04/03 11:27:23;;;;;;;10.85;10.25;;;;;;;;;;5115722;28;20323;-65
2023/04/03 11:29:52;;;;;;;11.07;10.48;;;;;;;;;;5112524;28;20015;-64
2023/04/03 11:32:36;;;;;;;11.07;10.48;;;;;;;;;;5114194;28;20423;-65
2023/04/03 11:35:02;;;;;;;;;;;;;;;;;;5114121;28;20102;-64
2023/04/03 11:37:33;;;;;;;10.83;10.23;;;;;;;;;;5100388;28;19958;-64
2023/04/03 11:40:08;;;;;;;10.95;10.35;;;;;;;;;;5098876;28;20073;-65
2023/04/03 11:42:37;;;;;;;11.18;10.57;;;;;;;;;;5104597;28;20028;-63
2023/04/03 11:45:21;;;;;;;11.02;10.43;;;;;;;;;;5107348;28;20027;-61
2023/04/03 11:47:50;;;;;;;11.65;11.05;;;;;;;;;;5111198;28;20039;-64
2023/04/03 11:50:34;;;;;;;11.05;10.45;;;;;;;;;;5106286;28;20161;-65
2023/04/03 11:53:05;;;;;;;10.03;9.53;;;;;;;;;;5112105;28;20023;-65
2023/04/03 11:55:30;;;;;;;11.10;10.50;;;;;;;;;;5119899;28;20019;-64
2023/04/03 11:57:59;;;;;;;11.80;11.13;;;;;;;;;;5104112;28;20030;-63
2023/04/03 12:00:42;;;;;;;11.77;11.07;;;;;;;;;;5112033;28;20047;-63
2023/04/03 12:03:29;;;;;;;11.07;10.48;;;;;;;;;;5113019;28;20511;-64
2023/04/03 12:05:57;;;;;;;10.63;10.07;;;;;;;;;;5112184;28;20016;-61
2023/04/03 12:08:29;;;;;;;12.05;11.35;;;;;;;;;;5096332;28;20350;-63
2023/04/03 12:11:12;;;;;;;11.45;10.85;;;;;;;;;;5097594;28;20019;-62
2023/04/03 12:13:38;;;;;;;10.80;10.20;;;;;;;;;;5102970;28;20020;-64
2023/04/03 12:16:04;;;;;;;11.52;10.93;;;;;;;;;;5105580;28;20478;-63
2023/04/03 12:18:42;;;;;;;11.45;10.85;;;;;;;;;;5110606;27;20019;-64
2023/04/03 12:21:08;;;;;;;10.45;9.95;;;;;;;;;;5116411;27;20015;-65
2023/04/03 12:23:35;;;;;;;11.73;11.02;;;;;;;;;;5109115;27;21823;-64
2023/04/03 12:26:03;;;;;;;11.02;10.43;;;;;;;;;;5111504;27;20102;-64
2023/04/03 12:28:29;;;;;;;11.05;10.45;;;;;;;;;;5107624;27;20031;-64
2023/04/03 12:30:55;;;;;;;11.50;10.90;;;;;;;;;;5122223;27;20393;-64
2023/04/03 12:33:28;;;;;;;11.38;10.77;;;;;;;;;;5115285;27;20564;-64
2023/04/03 12:36:07;;;;;;;11.23;10.63;;;;;;;;;;5112163;27;20475;-64
2023/04/03 12:38:41;;;;;;;11.57;10.98;;;;;;;;;;5115520;27;20020;-65
2023/04/03 12:41:18;;;;;;;11.65;10.98;;;;;;;;;;5108213;27;20486;-64
2023/04/03 12:44:02;;;;;;;10.27;9.77;;;;;;;;;;5091369;28;20023;-62
2023/04/03 12:46:53;;;;;;;10.77;10.18;;;;;;;;;;5112859;27;20023;-64
2023/04/03 12:49:37;;;;;;;14.10;13.20;;;;;;;;;;5102062;27;20121;-65
2023/04/03 12:52:05;;;;;;;11.68;11.00;;;;;;;;;;5105383;27;20055;-67
2023/04/03 12:54:39;;;;;;;11.68;11.02;;;;;;;;;;5111075;27;20027;-66
2023/04/03 12:57:10;;;;;;;11.90;11.20;;;;;;;;;;5104261;27;20027;-64
2023/04/03 12:59:36;;;;;;;12.40;11.70;;;;;;;;;;5107594;27;20053;-63
2023/04/03 13:02:01;;;;;;;12.32;11.63;;;;;;;;;;5106217;27;20031;-63
2023/04/03 13:04:27;;;;;;;11.95;11.25;;;;;;;;;;5105786;27;20474;-64
2023/04/03 13:06:52;;;;;;;11.20;10.60;;;;;;;;;;5110774;27;20063;-63
2023/04/03 13:09:23;;;;;;;11.50;10.90;;;;;;;;;;5110132;27;20090;-64
2023/04/03 13:11:49;;;;;;;11.82;11.15;;;;;;;;;;5103960;27;20049;-62
2023/04/03 13:14:17;;;;;;;10.85;10.25;;;;;;;;;;5110810;27;20491;-64
2023/04/03 13:16:52;;;;;;;10.82;10.23;;;;;;;;;;5114520;27;20034;-64
2023/04/03 13:19:17;;;;;;;11.70;11.02;;;;;;;;;;5117650;27;20027;-62
2023/04/03 13:21:44;;;;;;;13.38;12.57;;;;;;;;;;5107552;27;20047;-64
2023/04/03 13:24:10;;;;;;;11.30;10.70;;;;;;;;;;5105044;27;20024;-63
2023/04/03 13:26:35;;;;;;;11.35;10.75;;;;;;;;;;5110005;27;20038;-64
2023/04/03 13:29:17;;;;;;;11.52;10.93;;;;;;;;;;5109550;28;20092;-64
2023/04/03 13:31:43;;;;;;;12.15;11.45;;;;;;;;;;5101447;27;20032;-65
2023/04/03 13:34:11;;;;;;;11.43;10.82;;;;;;;;;;5109314;28;20610;-66
2023/04/03 13:36:39;;;;;;;11.95;11.25;;;;;;;;;;5114877;27;20042;-64
2023/04/03 13:39:04;;;;;;;11.10;10.50;;;;;;;;;;5117412;27;20438;-64
2023/04/03 13:41:31;;;;;;;11.48;10.88;;;;;;;;;;5111360;27;20027;-64
2023/04/03 13:43:56;;;;;;;10.77;10.18;;;;;;;;;;5111705;27;20479;-63
2023/04/03 13:46:24;;;;;;;11.63;11.00;;;;;;;;;;5116424;27;20036;-63
2023/04/03 13:48:51;;;;;;;11.50;10.90;;;;;;;;;;5114501;27;20027;-64
2023/04/03 13:51:19;;;;;;;10.77;10.18;;;;;;;;;;5113953;27;20056;-63
2023/04/03 13:53:48;;;;;;;12.02;11.32;;;;;;;;;;5105980;27;20019;-64
2023/04/03 13:56:20;;;;;;;11.77;11.10;;;;;;;;;;5111053;27;20569;-65
2023/04/03 13:58:53;;;;;;;12.70;11.98;;;;;;;;;;5109853;27;20031;-65
2023/04/03 14:01:20;;;;;;;11.15;10.55;;;;;;;;;;5106843;27;20047;-63
2023/04/03 14:03:51;;;;;;;11.70;11.00;;;;;;;;;;5108011;27;20023;-63
2023/04/03 14:06:17;;;;;;;10.93;10.32;;;;;;;;;;5106969;28;20027;-64
2023/04/03 14:08:43;;;;;;;12.27;11.57;;;;;;;;;;5110559;27;20478;-65
2023/04/03 14:11:12;;;;;;;11.10;10.50;;;;;;;;;;5111769;27;20023;-63
2023/04/03 14:13:37;;;;;;;12.02;11.32;;;;;;;;;;5112067;27;20139;-64
2023/04/03 14:16:03;;;;;;;11.65;11.02;;;;;;;;;;5110245;27;20106;-64
2023/04/03 14:18:28;;;;;;;11.07;10.48;;;;;;;;;;5107261;27;20028;-65
2023/04/03 14:20:53;;;;;;;11.60;10.95;;;;;;;;;;5093753;27;20015;-64
2023/04/03 14:23:19;;;;;;;11.35;10.75;;;;;;;;;;5108421;27;20051;-65
2023/04/03 14:25:45;;;;;;;12.40;11.70;;;;;;;;;;5107520;28;20597;-65
2023/04/03 14:28:17;;;;;;;11.23;10.63;;;;;;;;;;5118173;27;20111;-66
2023/04/03 14:30:43;;;;;;;11.27;10.68;;;;;;;;;;5107382;28;20110;-64
2023/04/03 14:33:12;;;;;;;11.30;10.70;;;;;;;;;;5110415;27;20468;-65